^^
Station Historical Data
 
Daily Summary for August 05, 2020 Units:  English    Metric   Both
Daily Weekly Monthly Yearly
  Current: High: Low: Average:
Temperature: 69.3 °F 70.5 °F 59.1 °F 64.7 °F
Dew Point: 53.9 °F 59.8 °F 52.5 °F 55.2 °F
Humidity: 58% 83% 55% 72%
Wind Speed: 1mph 12mph 1mph 4.6mph
Wind Gust: 1mph 14mph - -
WindNW - - WSW
Pressure: 30.02 in 30.05 in 29.95 in -
Precipitation: 0.00 in      
 
 
Tabular Data for August 05, 2020
Time Temperature Dew Point Pressure Wind Wind Speed Wind Gust Humidity Rainfall Rate (Hourly) solar
00:00 64.2 °F 53.8 °F 29.96 in NNW 2 mph 2 mph 69% 0.00 in 0 W/m2
00:05 64.3 °F 55.1 °F 29.96 in WNW 1 mph 2 mph 72% 0.00 in 0 W/m2
00:10 64.3 °F 55.1 °F 29.96 in North 2 mph 2 mph 72% 0.00 in 0 W/m2
00:15 64.2 °F 55 °F 29.96 in NW 1 mph 2 mph 72% 0.00 in 0 W/m2
00:20 64 °F 54.8 °F 29.96 in NE 1 mph 1 mph 72% 0.00 in 0 W/m2
00:25 64 °F 54.8 °F 29.96 in WNW 2 mph 2 mph 72% 0.00 in 0 W/m2
00:30 63.9 °F 55.1 °F 29.96 in NW 2 mph 2 mph 73% 0.00 in 0 W/m2
00:35 63.8 °F 54.6 °F 29.96 in NNW 2 mph 4 mph 72% 0.00 in 0 W/m2
00:40 63.8 °F 54.6 °F 29.96 in NW 2 mph 2 mph 72% 0.00 in 0 W/m2
00:45 63.7 °F 54.5 °F 29.96 in WNW 2 mph 2 mph 72% 0.00 in 0 W/m2
00:50 63.7 °F 54.9 °F 29.96 in NW 2 mph 2 mph 73% 0.00 in 0 W/m2
00:55 63.6 °F 54.8 °F 29.96 in NE 2 mph 2 mph 73% 0.00 in 0 W/m2
01:00 63.6 °F 54.8 °F 29.96 in NNW 2 mph 2 mph 73% 0.00 in 0 W/m2
01:05 63.5 °F 54.7 °F 29.96 in NE 2 mph 2 mph 73% 0.00 in 0 W/m2
01:10 63.4 °F 54.6 °F 29.96 in NW 2 mph 2 mph 73% 0.00 in 0 W/m2
01:15 63.3 °F 54.5 °F 29.96 in NW 2 mph 2 mph 73% 0.00 in 0 W/m2
01:20 63.2 °F 54.4 °F 29.96 in NW 2 mph 3 mph 73% 0.00 in 0 W/m2
01:25 63.2 °F 54.4 °F 29.96 in NW 2 mph 3 mph 73% 0.00 in 0 W/m2
01:30 63.1 °F 54.3 °F 29.96 in NW 2 mph 2 mph 73% 0.00 in 0 W/m2
01:35 63 °F 54.2 °F 29.95 in West 2 mph 2 mph 73% 0.00 in 0 W/m2
01:40 62.9 °F 54.5 °F 29.96 in NE 2 mph 2 mph 74% 0.00 in 0 W/m2
01:45 62.9 °F 54.5 °F 29.96 in West 2 mph 2 mph 74% 0.00 in 0 W/m2
01:50 62.9 °F 54.5 °F 29.95 in NW 2 mph 2 mph 74% 0.00 in 0 W/m2
01:55 62.8 °F 54.4 °F 29.95 in NW 2 mph 2 mph 74% 0.00 in 0 W/m2
02:00 62.7 °F 54.3 °F 29.95 in North 2 mph 2 mph 74% 0.00 in 0 W/m2
02:05 62.7 °F 54.3 °F 29.95 in North 2 mph 2 mph 74% 0.00 in 0 W/m2
02:10 62.6 °F 54.2 °F 29.95 in NW 1 mph 1 mph 74% 0.00 in 0 W/m2
02:15 62.6 °F 54.2 °F 29.95 in NW 1 mph 1 mph 74% 0.00 in 0 W/m2
02:20 62.5 °F 53.7 °F 29.95 in North 2 mph 2 mph 73% 0.00 in 0 W/m2
02:25 62.5 °F 54.1 °F 29.95 in WNW 2 mph 2 mph 74% 0.00 in 0 W/m2
02:30 62.5 °F 54.1 °F 29.95 in North 2 mph 2 mph 74% 0.00 in 0 W/m2
02:35 62.3 °F 53.5 °F 29.95 in NE 2 mph 2 mph 73% 0.00 in 0 W/m2
02:40 62.3 °F 53.5 °F 29.95 in NW 2 mph 2 mph 73% 0.00 in 0 W/m2
02:45 62.3 °F 53.9 °F 29.95 in WNW 2 mph 4 mph 74% 0.00 in 0 W/m2
02:50 62.3 °F 53.9 °F 29.95 in NW 2 mph 2 mph 74% 0.00 in 0 W/m2
02:55 62.2 °F 53.8 °F 29.95 in West 2 mph 2 mph 74% 0.00 in 0 W/m2
03:00 62.2 °F 53.8 °F 29.95 in West 2 mph 2 mph 74% 0.00 in 0 W/m2
03:05 62.2 °F 54.2 °F 29.95 in NW 2 mph 2 mph 75% 0.00 in 0 W/m2
03:10 62 °F 53.6 °F 29.95 in NE 2 mph 2 mph 74% 0.00 in 0 W/m2
03:15 62 °F 54 °F 29.95 in West 2 mph 3 mph 75% 0.00 in 0 W/m2
03:20 61.9 °F 53.5 °F 29.95 in NE 2 mph 2 mph 74% 0.00 in 0 W/m2
03:25 61.9 °F 53.5 °F 29.96 in NW 2 mph 2 mph 74% 0.00 in 0 W/m2
03:30 61.8 °F 53.4 °F 29.96 in NW 2 mph 2 mph 74% 0.00 in 0 W/m2
03:35 61.8 °F 53.4 °F 29.96 in WNW 2 mph 2 mph 74% 0.00 in 0 W/m2
03:40 61.8 °F 53.8 °F 29.96 in NW 2 mph 2 mph 75% 0.00 in 0 W/m2
03:45 61.8 °F 53.8 °F 29.96 in North 2 mph 2 mph 75% 0.00 in 0 W/m2
03:50 61.8 °F 53.8 °F 29.96 in NW 2 mph 2 mph 75% 0.00 in 0 W/m2
03:55 61.7 °F 53.7 °F 29.96 in NNW 2 mph 2 mph 75% 0.00 in 0 W/m2
04:00 61.7 °F 53.3 °F 29.96 in West 2 mph 2 mph 74% 0.00 in 0 W/m2
04:05 61.7 °F 53.7 °F 29.97 in WSW 3 mph 3 mph 75% 0.00 in 0 W/m2
04:10 61.6 °F 53.6 °F 29.97 in WNW 3 mph 5 mph 75% 0.00 in 0 W/m2
04:15 61.6 °F 53.6 °F 29.97 in WNW 3 mph 5 mph 75% 0.00 in 0 W/m2
04:20 61.5 °F 53.9 °F 29.97 in West 3 mph 3 mph 76% 0.00 in 0 W/m2
04:25 61.5 °F 53.9 °F 29.97 in WNW 3 mph 5 mph 76% 0.00 in 0 W/m2
04:30 61.4 °F 53.8 °F 29.97 in West 3 mph 3 mph 76% 0.00 in 0 W/m2
04:35 61.3 °F 53.7 °F 29.97 in West 3 mph 4 mph 76% 0.00 in 0 W/m2
04:40 61.3 °F 54 °F 29.98 in NW 3 mph 3 mph 77% 0.00 in 0 W/m2
04:45 61.2 °F 53.6 °F 29.98 in WNW 3 mph 8 mph 76% 0.00 in 0 W/m2
04:50 61.1 °F 53.1 °F 29.97 in NNW 3 mph 3 mph 75% 0.00 in 0 W/m2
04:55 61 °F 53 °F 29.97 in WNW 3 mph 3 mph 75% 0.00 in 0 W/m2
05:00 61 °F 53 °F 29.98 in West 3 mph 3 mph 75% 0.00 in 0 W/m2
05:05 60.9 °F 52.9 °F 29.98 in SW 3 mph 3 mph 75% 0.00 in 0 W/m2
05:10 60.9 °F 52.9 °F 29.98 in NW 2 mph 4 mph 75% 0.00 in 0 W/m2
05:15 60.9 °F 52.6 °F 29.98 in WSW 2 mph 8 mph 74% 0.00 in 0 W/m2
05:20 60.8 °F 52.5 °F 29.98 in WNW 3 mph 3 mph 74% 0.00 in 0 W/m2
05:25 60.8 °F 53.2 °F 29.98 in West 3 mph 3 mph 76% 0.00 in 0 W/m2
05:30 60.8 °F 53.5 °F 29.98 in NNW 3 mph 3 mph 77% 0.00 in 0 W/m2
05:35 60.7 °F 53.8 °F 29.98 in WNW 3 mph 3 mph 78% 0.00 in 0 W/m2
05:40 60.6 °F 54 °F 29.98 in West 3 mph 3 mph 79% 0.00 in 0 W/m2
05:45 60.5 °F 54.3 °F 29.98 in North 3 mph 3 mph 80% 0.00 in 0 W/m2
05:50 60.4 °F 54.2 °F 29.98 in West 3 mph 3 mph 80% 0.00 in 0 W/m2
05:55 60.3 °F 54.1 °F 29.99 in WNW 3 mph 3 mph 80% 0.00 in 0 W/m2
06:00 60.1 °F 53.9 °F 29.99 in NW 3 mph 4 mph 80% 0.00 in 0 W/m2
06:05 60 °F 54.2 °F 29.99 in WNW 3 mph 4 mph 81% 0.00 in 0 W/m2
06:10 59.9 °F 54.1 °F 30.00 in North 3 mph 3 mph 81% 0.00 in 0 W/m2
06:15 59.8 °F 54 °F 29.99 in West 3 mph 3 mph 81% 0.00 in 0 W/m2
06:20 59.6 °F 53.8 °F 30.00 in WNW 2 mph 2 mph 81% 0.00 in 0 W/m2
06:25 59.5 °F 53.7 °F 30.00 in NW 3 mph 4 mph 81% 0.00 in 0 W/m2
06:30 59.3 °F 53.8 °F 30.00 in NW 3 mph 3 mph 82% 0.00 in 5 W/m2
06:35 59.2 °F 53.7 °F 30.01 in West 3 mph 3 mph 82% 0.00 in 7 W/m2
06:40 59.1 °F 53.6 °F 30.01 in NNE 2 mph 2 mph 82% 0.00 in 9 W/m2
06:45 59.1 °F 53.6 °F 30.01 in WSW 2 mph 2 mph 82% 0.00 in 12 W/m2
06:50 59.1 °F 53.6 °F 30.01 in WSW 3 mph 3 mph 82% 0.00 in 14 W/m2
06:55 59.2 °F 54 °F 30.01 in WNW 2 mph 3 mph 83% 0.00 in 16 W/m2
07:00 59.2 °F 53.7 °F 30.01 in WNW 2 mph 7 mph 82% 0.00 in 19 W/m2
07:05 59.1 °F 53.3 °F 30.01 in NW 3 mph 7 mph 81% 0.00 in 21 W/m2
07:10 59.2 °F 53.4 °F 30.02 in West 3 mph 3 mph 81% 0.00 in 23 W/m2
07:15 59.2 °F 53.4 °F 30.02 in WNW 2 mph 3 mph 81% 0.00 in 25 W/m2
07:20 59.3 °F 53.5 °F 30.02 in West 2 mph 3 mph 81% 0.00 in 26 W/m2
07:25 59.3 °F 53.5 °F 30.02 in NW 3 mph 3 mph 81% 0.00 in 26 W/m2
07:30 59.3 °F 53.1 °F 30.02 in West 3 mph 3 mph 80% 0.00 in 30 W/m2
07:35 59.3 °F 53.1 °F 30.02 in WSW 3 mph 3 mph 80% 0.00 in 39 W/m2
07:40 59.4 °F 53.6 °F 30.02 in West 3 mph 6 mph 81% 0.00 in 40 W/m2
07:45 59.4 °F 53.2 °F 30.02 in NW 3 mph 6 mph 80% 0.00 in 33 W/m2
07:50 59.4 °F 52.9 °F 30.02 in WNW 3 mph 4 mph 79% 0.00 in 35 W/m2
07:55 59.5 °F 53 °F 30.03 in West 3 mph 4 mph 79% 0.00 in 35 W/m2
08:00 59.5 °F 53.3 °F 30.03 in NW 3 mph 4 mph 80% 0.00 in 37 W/m2
08:05 59.6 °F 53.1 °F 30.03 in SW 3 mph 6 mph 79% 0.00 in 44 W/m2
08:10 59.7 °F 53.2 °F 30.03 in West 3 mph 3 mph 79% 0.00 in 35 W/m2
08:15 59.7 °F 52.8 °F 30.03 in WNW 3 mph 7 mph 78% 0.00 in 42 W/m2
08:20 59.7 °F 52.8 °F 30.03 in WNW 3 mph 5 mph 78% 0.00 in 223 W/m2
08:25 59.8 °F 52.9 °F 30.03 in WSW 4 mph 9 mph 78% 0.00 in 264 W/m2
08:30 59.9 °F 53.4 °F 30.03 in NNW 4 mph 4 mph 79% 0.00 in 279 W/m2
08:35 60 °F 53.5 °F 30.03 in WSW 3 mph 4 mph 79% 0.00 in 292 W/m2
08:40 60.1 °F 53.6 °F 30.04 in WNW 3 mph 3 mph 79% 0.00 in 306 W/m2
08:45 60.2 °F 53.7 °F 30.04 in SW 3 mph 9 mph 79% 0.00 in 322 W/m2
08:50 60.4 °F 53.5 °F 30.04 in North 4 mph 4 mph 78% 0.00 in 320 W/m2
08:55 60.5 °F 53.6 °F 30.04 in NW 4 mph 4 mph 78% 0.00 in 352 W/m2
09:00 60.6 °F 53.3 °F 30.04 in West 3 mph 6 mph 77% 0.00 in 366 W/m2
09:05 60.7 °F 53.8 °F 30.04 in NNW 3 mph 6 mph 78% 0.00 in 378 W/m2
09:10 60.9 °F 54 °F 30.05 in West 3 mph 4 mph 78% 0.00 in 392 W/m2
09:15 61 °F 54.1 °F 30.05 in NNW 4 mph 4 mph 78% 0.00 in 406 W/m2
09:20 61.1 °F 53.8 °F 30.05 in NW 4 mph 4 mph 77% 0.00 in 427 W/m2
09:25 61.3 °F 54 °F 30.04 in WNW 3 mph 4 mph 77% 0.00 in 434 W/m2
09:30 61.3 °F 54 °F 30.04 in WNW 3 mph 3 mph 77% 0.00 in 450 W/m2
09:35 61.4 °F 54.1 °F 30.04 in West 3 mph 6 mph 77% 0.00 in 464 W/m2
09:40 61.6 °F 54.3 °F 30.04 in NW 4 mph 4 mph 77% 0.00 in 476 W/m2
09:45 61.7 °F 54.4 °F 30.04 in WNW 4 mph 4 mph 77% 0.00 in 490 W/m2
09:50 61.8 °F 54.2 °F 30.04 in NW 4 mph 4 mph 76% 0.00 in 504 W/m2
09:55 62 °F 54.3 °F 30.04 in NW 4 mph 4 mph 76% 0.00 in 517 W/m2
10:00 62.1 °F 54.4 °F 30.04 in West 5 mph 6 mph 76% 0.00 in 531 W/m2
10:05 62.2 °F 54.2 °F 30.05 in NW 5 mph 6 mph 75% 0.00 in 545 W/m2
10:10 62.3 °F 53.9 °F 30.04 in NW 4 mph 4 mph 74% 0.00 in 555 W/m2
10:15 62.4 °F 54 °F 30.04 in West 4 mph 4 mph 74% 0.00 in 568 W/m2
10:20 62.6 °F 54.6 °F 30.04 in WSW 4 mph 5 mph 75% 0.00 in 580 W/m2
10:25 62.7 °F 54.3 °F 30.04 in WNW 4 mph 5 mph 74% 0.00 in 592 W/m2
10:30 62.8 °F 54 °F 30.04 in NNW 4 mph 4 mph 73% 0.00 in 606 W/m2
10:35 62.9 °F 53.7 °F 30.04 in WNW 4 mph 4 mph 72% 0.00 in 617 W/m2
10:40 63.1 °F 54.3 °F 30.04 in NW 5 mph 5 mph 73% 0.00 in 629 W/m2
10:45 63.2 °F 54 °F 30.04 in WNW 5 mph 5 mph 72% 0.00 in 638 W/m2
10:50 63.3 °F 54.5 °F 30.04 in WNW 4 mph 4 mph 73% 0.00 in 649 W/m2
10:55 63.5 °F 54.3 °F 30.04 in WSW 5 mph 6 mph 72% 0.00 in 661 W/m2
11:00 63.6 °F 54 °F 30.04 in WSW 5 mph 9 mph 71% 0.00 in 673 W/m2
11:05 63.7 °F 54.1 °F 30.04 in WSW 6 mph 9 mph 71% 0.00 in 682 W/m2
11:10 63.9 °F 54.7 °F 30.04 in West 5 mph 10 mph 72% 0.00 in 693 W/m2
11:15 64.1 °F 54.9 °F 30.04 in West 5 mph 10 mph 72% 0.00 in 701 W/m2
11:20 64.3 °F 54.7 °F 30.04 in NW 6 mph 6 mph 71% 0.00 in 712 W/m2
11:25 64.3 °F 54.7 °F 30.04 in West 5 mph 6 mph 71% 0.00 in 719 W/m2
11:30 64.6 °F 55 °F 30.04 in SW 5 mph 7 mph 71% 0.00 in 729 W/m2
11:35 64.7 °F 55.5 °F 30.04 in WSW 6 mph 9 mph 72% 0.00 in 738 W/m2
11:40 65 °F 55.8 °F 30.04 in West 7 mph 7 mph 72% 0.00 in 749 W/m2
11:45 65.2 °F 55.9 °F 30.04 in WSW 9 mph 8 mph 72% 0.00 in 758 W/m2
11:50 65.3 °F 56 °F 30.04 in WSW 9 mph 9 mph 72% 0.00 in 766 W/m2
11:55 65.5 °F 56.6 °F 30.04 in WSW 8 mph 9 mph 73% 0.00 in 777 W/m2
12:00 65.6 °F 55.9 °F 30.04 in WSW 9 mph 9 mph 71% 0.00 in 791 W/m2
12:05 65.7 °F 56 °F 30.04 in SW 10 mph 10 mph 71% 0.00 in 872 W/m2
12:10 65.8 °F 56.1 °F 30.04 in WSW 10 mph 10 mph 71% 0.00 in 452 W/m2
12:15 65.6 °F 55.5 °F 30.04 in West 10 mph 10 mph 70% 0.00 in 865 W/m2
12:20 65.8 °F 55.7 °F 30.04 in WSW 10 mph 10 mph 70% 0.00 in 830 W/m2
12:25 66.1 °F 56 °F 30.05 in WSW 9 mph 10 mph 70% 0.00 in 849 W/m2
12:30 66.1 °F 57.2 °F 30.05 in WSW 10 mph 11 mph 73% 0.00 in 438 W/m2
12:35 65.8 °F 56.1 °F 30.05 in SW 11 mph 11 mph 71% 0.00 in 383 W/m2
12:40 65.9 °F 56.2 °F 30.05 in WSW 11 mph 11 mph 71% 0.00 in 373 W/m2
12:45 66.1 °F 56.4 °F 30.05 in WSW 10 mph 12 mph 71% 0.00 in 475 W/m2
12:50 66.3 °F 57 °F 30.05 in West 12 mph 12 mph 72% 0.00 in 431 W/m2
12:55 66.5 °F 56.8 °F 30.05 in WSW 11 mph 12 mph 71% 0.00 in 366 W/m2
13:00 66.3 °F 56.6 °F 30.05 in WSW 10 mph 13 mph 71% 0.00 in 343 W/m2
13:05 66.4 °F 57.1 °F 30.05 in West 11 mph 13 mph 72% 0.00 in 858 W/m2
13:10 66.5 °F 57.6 °F 30.05 in WSW 12 mph 14 mph 73% 0.00 in 872 W/m2
13:15 66.8 °F 57.5 °F 30.04 in WSW 12 mph 14 mph 72% 0.00 in 867 W/m2
13:20 67.1 °F 57.4 °F 30.04 in WSW 12 mph 12 mph 71% 0.00 in 879 W/m2
13:25 67.3 °F 57.6 °F 30.05 in WSW 11 mph 14 mph 71% 0.00 in 847 W/m2
13:30 67.2 °F 57.5 °F 30.04 in SW 11 mph 11 mph 71% 0.00 in 874 W/m2
13:35 67.4 °F 58.1 °F 30.04 in WSW 11 mph 13 mph 72% 0.00 in 874 W/m2
13:40 67.2 °F 57.1 °F 30.05 in WSW 10 mph 11 mph 70% 0.00 in 951 W/m2
13:45 67.4 °F 58.4 °F 30.05 in WSW 11 mph 11 mph 73% 0.00 in 840 W/m2
13:50 67.8 °F 57.7 °F 30.05 in WSW 12 mph 14 mph 70% 0.00 in 861 W/m2
13:55 68 °F 58.6 °F 30.05 in WSW 12 mph 14 mph 72% 0.00 in 861 W/m2
14:00 68 °F 57.8 °F 30.05 in WSW 12 mph 12 mph 70% 0.00 in 858 W/m2
14:05 68.1 °F 58.3 °F 30.05 in SW 11 mph 12 mph 71% 0.00 in 856 W/m2
14:10 68 °F 58.2 °F 30.05 in SW 10 mph 10 mph 71% 0.00 in 884 W/m2
14:15 68.1 °F 57.9 °F 30.05 in WSW 10 mph 10 mph 70% 0.00 in 854 W/m2
14:20 68.1 °F 58.3 °F 30.05 in SW 10 mph 10 mph 71% 0.00 in 854 W/m2
14:25 67.9 °F 57.8 °F 30.05 in WSW 9 mph 10 mph 70% 0.00 in 849 W/m2
14:30 68 °F 57.4 °F 30.05 in WSW 8 mph 9 mph 69% 0.00 in 849 W/m2
14:35 68.2 °F 57.2 °F 30.05 in WSW 9 mph 9 mph 68% 0.00 in 847 W/m2
14:40 68.4 °F 57.8 °F 30.05 in WSW 9 mph 10 mph 69% 0.00 in 844 W/m2
14:45 68.5 °F 57.9 °F 30.04 in WSW 9 mph 10 mph 69% 0.00 in 838 W/m2
14:50 68.6 °F 57.2 °F 30.04 in WSW 9 mph 9 mph 67% 0.00 in 831 W/m2
14:55 68.5 °F 57.5 °F 30.04 in WSW 9 mph 9 mph 68% 0.00 in 828 W/m2
15:00 68.8 °F 58.2 °F 30.04 in WSW 9 mph 9 mph 69% 0.00 in 826 W/m2
15:05 68.8 °F 57.8 °F 30.04 in SW 8 mph 9 mph 68% 0.00 in 821 W/m2
15:10 68.9 °F 57.5 °F 30.04 in WSW 8 mph 11 mph 67% 0.00 in 821 W/m2
15:15 69 °F 57.2 °F 30.04 in SW 9 mph 12 mph 66% 0.00 in 809 W/m2
15:20 69.1 °F 57.7 °F 30.04 in SSW 9 mph 9 mph 67% 0.00 in 802 W/m2
15:25 69 °F 58 °F 30.04 in SW 9 mph 9 mph 68% 0.00 in 798 W/m2
15:30 68.9 °F 58.3 °F 30.04 in WSW 8 mph 8 mph 69% 0.00 in 773 W/m2
15:35 68.5 °F 57.5 °F 30.04 in WSW 7 mph 9 mph 68% 0.00 in 749 W/m2
15:40 69 °F 58 °F 30.03 in SW 7 mph 7 mph 68% 0.00 in 703 W/m2
15:45 68.8 °F 57.4 °F 30.04 in WSW 7 mph 9 mph 67% 0.00 in 759 W/m2
15:50 69 °F 57.6 °F 30.03 in WSW 8 mph 8 mph 67% 0.00 in 758 W/m2
15:55 69.2 °F 58.2 °F 30.03 in SW 8 mph 8 mph 68% 0.00 in 779 W/m2
16:00 69.2 °F 58.2 °F 30.03 in WSW 7 mph 7 mph 68% 0.00 in 647 W/m2
16:05 69.3 °F 58.3 °F 30.03 in SW 7 mph 7 mph 68% 0.00 in 717 W/m2
16:10 69.4 °F 57.5 °F 30.03 in SW 7 mph 7 mph 66% 0.00 in 724 W/m2
16:15 69.4 °F 57.5 °F 30.03 in SW 6 mph 7 mph 66% 0.00 in 626 W/m2
16:20 69.4 °F 57.5 °F 30.03 in SW 6 mph 8 mph 66% 0.00 in 506 W/m2
16:25 69.5 °F 57.6 °F 30.03 in SW 6 mph 8 mph 66% 0.00 in 654 W/m2
16:30 69.7 °F 58.7 °F 30.03 in SW 6 mph 6 mph 68% 0.00 in 719 W/m2
16:35 70 °F 58.1 °F 30.03 in SW 6 mph 9 mph 66% 0.00 in 714 W/m2
16:40 70.2 °F 57.4 °F 30.03 in SW 7 mph 7 mph 64% 0.00 in 594 W/m2
16:45 70.3 °F 57.5 °F 30.03 in SW 7 mph 8 mph 64% 0.00 in 613 W/m2
16:50 70.5 °F 57.7 °F 30.03 in SW 7 mph 7 mph 64% 0.00 in 610 W/m2
16:55 70.5 °F 57.7 °F 30.03 in WSW 6 mph 7 mph 64% 0.00 in 397 W/m2
17:00 70.5 °F 57.3 °F 30.03 in SW 6 mph 6 mph 63% 0.00 in 570 W/m2
17:05 70.3 °F 57.1 °F 30.03 in SW 6 mph 6 mph 63% 0.00 in 647 W/m2
17:10 70 °F 58.1 °F 30.02 in SW 5 mph 5 mph 66% 0.00 in 619 W/m2
17:15 70 °F 57.3 °F 30.02 in SW 5 mph 5 mph 64% 0.00 in 605 W/m2
17:20 69.8 °F 57.1 °F 30.02 in SW 5 mph 5 mph 64% 0.00 in 512 W/m2
17:25 69.8 °F 57.1 °F 30.02 in SW 5 mph 5 mph 64% 0.00 in 292 W/m2
17:30 69.9 °F 57.6 °F 30.02 in SSW 5 mph 5 mph 65% 0.00 in 353 W/m2
17:35 70 °F 59 °F 30.02 in SW 5 mph 5 mph 68% 0.00 in 257 W/m2
17:40 70 °F 58.1 °F 30.03 in SW 5 mph 5 mph 66% 0.00 in 330 W/m2
17:45 70 °F 57.7 °F 30.02 in SW 5 mph 5 mph 65% 0.00 in 214 W/m2
17:50 70 °F 57.3 °F 30.02 in SW 5 mph 5 mph 64% 0.00 in 169 W/m2
17:55 69.9 °F 57.2 °F 30.02 in SW 5 mph 7 mph 64% 0.00 in 163 W/m2
18:00 69.9 °F 58 °F 30.02 in SW 5 mph 5 mph 66% 0.00 in 185 W/m2
18:05 69.8 °F 57.5 °F 30.02 in SW 5 mph 7 mph 65% 0.00 in 181 W/m2
18:10 69.8 °F 57.9 °F 30.03 in SW 6 mph 6 mph 66% 0.00 in 176 W/m2
18:15 69.8 °F 57.1 °F 30.02 in WSW 6 mph 6 mph 64% 0.00 in 162 W/m2
18:20 69.9 °F 57.6 °F 30.02 in SW 6 mph 6 mph 65% 0.00 in 207 W/m2
18:25 69.9 °F 58.4 °F 30.02 in SW 5 mph 6 mph 67% 0.00 in 202 W/m2
18:30 70 °F 59.8 °F 30.02 in SSW 6 mph 6 mph 70% 0.00 in 179 W/m2
18:35 70 °F 57.7 °F 30.02 in SW 6 mph 6 mph 65% 0.00 in 172 W/m2
18:40 70 °F 58.1 °F 30.02 in SW 6 mph 6 mph 66% 0.00 in 209 W/m2
18:45 70.1 °F 59 °F 30.02 in WSW 7 mph 7 mph 68% 0.00 in 271 W/m2
18:50 70.2 °F 59.1 °F 30.02 in SW 6 mph 6 mph 68% 0.00 in 250 W/m2
18:55 70.2 °F 58.3 °F 30.02 in WNW 5 mph 6 mph 66% 0.00 in 192 W/m2
19:00 70.2 °F 56.1 °F 30.02 in NNW 4 mph 4 mph 61% 0.00 in 151 W/m2
19:05 70.2 °F 55.7 °F 30.02 in NW 2 mph 4 mph 60% 0.00 in 127 W/m2
19:10 70.2 °F 55.2 °F 30.02 in NW 2 mph 2 mph 59% 0.00 in 116 W/m2
19:15 70.2 °F 55.2 °F 30.01 in WSW 2 mph 2 mph 59% 0.00 in 116 W/m2
19:20 70.2 °F 54.7 °F 30.01 in WSW 2 mph 2 mph 58% 0.00 in 109 W/m2
19:25 70.2 °F 54.7 °F 30.02 in NW 3 mph 3 mph 58% 0.00 in 102 W/m2
19:30 70.2 °F 54.7 °F 30.02 in NW 2 mph 3 mph 58% 0.00 in 90 W/m2
19:35 70.2 °F 54.7 °F 30.02 in WNW 1 mph 3 mph 58% 0.00 in 83 W/m2
19:40 70.2 °F 54.7 °F 30.02 in WNW 2 mph 2 mph 58% 0.00 in 79 W/m2
19:45 70.1 °F 54.2 °F 30.02 in WSW 2 mph 2 mph 57% 0.00 in 74 W/m2
19:50 70 °F 53.1 °F 30.02 in NW 2 mph 2 mph 55% 0.00 in 67 W/m2
19:55 70 °F 54.1 °F 30.02 in SW 2 mph 2 mph 57% 0.00 in 63 W/m2
20:00 69.9 °F 53.5 °F 30.02 in WNW 2 mph 2 mph 56% 0.00 in 56 W/m2
20:05 69.9 °F 53.5 °F 30.02 in NW 1 mph 3 mph 56% 0.00 in 46 W/m2
20:10 69.8 °F 53.4 °F 30.02 in SW 2 mph 2 mph 56% 0.00 in 35 W/m2
20:15 69.7 °F 53.3 °F 30.02 in NW 2 mph 2 mph 56% 0.00 in 25 W/m2
20:20 69.7 °F 53.3 °F 30.02 in NW 1 mph 1 mph 56% 0.00 in 21 W/m2
20:25 69.5 °F 53.6 °F 30.02 in WSW 1 mph 1 mph 57% 0.00 in 19 W/m2
20:30 69.5 °F 54.1 °F 30.02 in WNW 1 mph 2 mph 58% 0.00 in 14 W/m2
20:35 69.4 °F 54 °F 30.02 in NW 1 mph 2 mph 58% 0.00 in 14 W/m2
20:40 69.3 °F 53.9 °F 30.02 in NW 1 mph 1 mph 58% 0.00 in 11 W/m2
Sand Point, Michigan, USA
Compliments of Weather Underground - 2 mb